createdAt,value
2023-01-02T00:02:22.401Z,8.17
2023-01-02T00:04:48.982Z,8.14
2023-01-02T00:07:15.567Z,8.12
2023-01-02T00:09:42.113Z,8.08
2023-01-02T00:12:08.568Z,8.06
2023-01-02T00:14:35.243Z,8.03
2023-01-02T00:17:01.782Z,8.00
2023-01-02T00:19:28.273Z,7.97
2023-01-02T00:21:55.064Z,7.94
2023-01-02T00:24:21.750Z,7.91
2023-01-02T00:26:48.234Z,7.89
2023-01-02T00:29:15.132Z,7.86
2023-01-02T00:31:41.796Z,7.80
2023-01-02T00:34:08.346Z,7.77
2023-01-02T00:36:35.027Z,7.73
2023-01-02T00:39:01.483Z,7.71
2023-01-02T00:41:28.108Z,7.66
2023-01-02T00:43:54.621Z,7.63
2023-01-02T00:46:21.199Z,7.61
2023-01-02T00:48:47.772Z,7.58
2023-01-02T00:51:14.386Z,7.58
2023-01-02T00:53:41.084Z,7.54
2023-01-02T00:56:07.772Z,7.51
2023-01-02T00:58:34.947Z,7.50
2023-01-02T01:01:01.788Z,7.47
2023-01-02T01:03:28.645Z,7.45
2023-01-02T01:05:55.569Z,7.43
2023-01-02T01:08:22.147Z,7.42
2023-01-02T01:10:48.625Z,7.41
2023-01-02T01:13:15.726Z,7.39
2023-01-02T01:15:42.756Z,7.39
2023-01-02T01:18:09.311Z,7.36
2023-01-02T01:20:39.237Z,7.33
2023-01-02T01:23:05.782Z,7.32
2023-01-02T01:25:32.435Z,7.31
2023-01-02T01:27:58.977Z,7.29
2023-01-02T01:30:25.761Z,7.28
2023-01-02T01:32:52.246Z,7.27
2023-01-02T01:35:18.928Z,7.25
2023-01-02T01:37:45.461Z,7.25
2023-01-02T01:40:11.983Z,7.25
2023-01-02T01:42:38.445Z,7.23
2023-01-02T01:45:13.090Z,7.23
2023-01-02T01:47:47.393Z,7.23
2023-01-02T01:50:21.812Z,7.24
2023-01-02T01:52:55.130Z,7.25
2023-01-02T01:55:31.791Z,7.24
2023-01-02T01:58:05.624Z,7.25
2023-01-02T02:00:34.044Z,7.26
2023-01-02T02:03:07.318Z,7.25
2023-01-02T02:05:34.493Z,7.25
2023-01-02T02:08:40.153Z,7.23
2023-01-02T02:11:07.780Z,7.24
2023-01-02T02:13:34.465Z,7.23
2023-01-02T02:16:18.136Z,7.22
2023-01-02T02:19:07.043Z,7.19
2023-01-02T02:21:55.069Z,7.17
2023-01-02T02:24:59.240Z,7.13
2023-01-02T02:27:37.663Z,7.10
2023-01-02T02:30:08.199Z,7.09
2023-01-02T02:32:39.748Z,7.08
2023-01-02T02:35:22.227Z,7.04
2023-01-02T02:37:57.831Z,7.02
2023-01-02T02:40:42.934Z,6.99
2023-01-02T02:43:28.418Z,6.96
2023-01-02T02:46:01.057Z,6.94
2023-01-02T02:48:53.811Z,6.89
2023-01-02T02:51:34.648Z,6.88
2023-01-02T02:54:23.957Z,6.84
2023-01-02T02:56:52.990Z,6.83
2023-01-02T02:59:20.381Z,6.80
2023-01-02T03:01:47.205Z,6.78
2023-01-02T03:04:19.644Z,6.76
2023-01-02T03:07:06.754Z,6.70
2023-01-02T03:09:45.070Z,6.67
2023-01-02T03:12:34.756Z,6.66
2023-01-02T03:15:26.474Z,6.63
2023-01-02T03:18:29.928Z,6.60
2023-01-02T03:21:13.016Z,6.58
2023-01-02T03:23:45.915Z,6.56
2023-01-02T03:26:16.894Z,6.55
2023-01-02T03:28:47.038Z,6.53
2023-01-02T03:31:18.796Z,6.51
2023-01-02T03:34:11.454Z,6.48
2023-01-02T03:36:41.181Z,6.47
2023-01-02T03:39:12.927Z,6.46
2023-01-02T03:41:57.882Z,6.45
2023-01-02T03:44:29.040Z,6.44
2023-01-02T03:47:07.872Z,6.44
2023-01-02T03:49:43.215Z,6.42
2023-01-02T03:52:09.922Z,6.43
2023-01-02T03:54:37.764Z,6.42
2023-01-02T03:57:24.835Z,6.40
2023-01-02T04:00:07.344Z,6.39
2023-01-02T04:02:52.088Z,6.37
2023-01-02T04:05:44.401Z,6.37
2023-01-02T04:08:24.166Z,6.35
2023-01-02T04:10:58.220Z,6.34
2023-01-02T04:13:34.039Z,6.34
2023-01-02T04:16:03.760Z,6.32
2023-01-02T04:18:37.285Z,6.30
2023-01-02T04:21:12.518Z,6.29
2023-01-02T04:23:42.502Z,6.27
2023-01-02T04:26:18.196Z,6.25
2023-01-02T04:28:45.055Z,6.24
2023-01-02T04:31:23.296Z,6.22
2023-01-02T04:33:57.293Z,6.21
2023-01-02T04:36:24.240Z,6.21
2023-01-02T04:38:51.219Z,6.20
2023-01-02T04:41:24.154Z,6.17
2023-01-02T04:43:50.703Z,6.17
2023-01-02T04:46:17.407Z,6.16
2023-01-02T04:48:43.876Z,6.16
2023-01-02T04:51:10.475Z,6.15
2023-01-02T04:53:37.001Z,6.13
2023-01-02T04:56:03.605Z,6.14
2023-01-02T04:58:30.239Z,6.14
2023-01-02T05:00:56.706Z,6.15
2023-01-02T05:03:23.396Z,6.14
2023-01-02T05:05:50.031Z,6.16
2023-01-02T05:08:16.870Z,6.17
2023-01-02T05:10:43.491Z,6.20
2023-01-02T05:13:10.138Z,6.21
2023-01-02T05:15:37.079Z,6.22
2023-01-02T05:18:03.785Z,6.26
2023-01-02T05:20:30.299Z,6.29
2023-01-02T05:22:56.933Z,6.31
2023-01-02T05:25:24.164Z,6.39
2023-01-02T05:27:57.276Z,6.41
2023-01-02T05:30:25.294Z,6.47
2023-01-02T05:32:53.097Z,6.52
2023-01-02T05:35:19.808Z,6.58
2023-01-02T05:37:46.430Z,6.63
2023-01-02T05:40:13.382Z,6.68
2023-01-02T05:42:40.056Z,6.75
2023-01-02T05:45:07.268Z,6.81
2023-01-02T05:47:33.807Z,6.87
2023-01-02T05:50:00.441Z,6.93
2023-01-02T05:52:26.988Z,6.99
2023-01-02T05:54:53.603Z,7.05
2023-01-02T05:57:20.428Z,7.08
2023-01-02T05:59:46.892Z,7.11
2023-01-02T06:02:13.517Z,7.12
2023-01-02T06:04:41.218Z,7.12
2023-01-02T06:07:07.706Z,7.12
2023-01-02T06:09:34.373Z,7.10
2023-01-02T06:12:00.825Z,7.08
2023-01-02T06:14:27.494Z,7.05
2023-01-02T06:16:54.053Z,7.03
2023-01-02T06:19:21.109Z,7.01
2023-01-02T06:21:47.639Z,6.97
2023-01-02T06:24:14.311Z,6.93
2023-01-02T06:26:40.942Z,6.89
2023-01-02T06:29:07.455Z,6.86
2023-01-02T06:31:34.102Z,6.84
2023-01-02T06:34:02.650Z,6.82
2023-01-02T06:36:32.012Z,6.80
2023-01-02T06:38:58.847Z,6.76
2023-01-02T06:41:26.152Z,6.74
2023-01-02T06:43:54.085Z,6.71
2023-01-02T06:46:22.914Z,6.71
2023-01-02T06:48:50.279Z,6.71
2023-01-02T06:51:19.993Z,6.75
2023-01-02T06:53:47.154Z,6.78
2023-01-02T06:56:17.141Z,6.79
2023-01-02T06:58:44.185Z,6.81
2023-01-02T07:01:19.639Z,6.82
2023-01-02T07:03:46.274Z,6.80
2023-01-02T07:06:21.183Z,6.77
2023-01-02T07:08:48.138Z,6.76
2023-01-02T07:11:23.621Z,6.72
2023-01-02T07:13:52.662Z,6.70
2023-01-02T07:16:20.935Z,6.67
2023-01-02T07:18:48.344Z,6.65
2023-01-02T07:21:16.234Z,6.63
2023-01-02T07:23:42.826Z,6.62
2023-01-02T07:26:10.272Z,6.58
2023-01-02T07:28:37.884Z,6.56
2023-01-02T07:31:07.796Z,6.56
2023-01-02T07:33:34.924Z,6.54
2023-01-02T07:36:03.898Z,6.53
2023-01-02T07:38:30.854Z,6.53
2023-01-02T07:40:57.469Z,6.52
2023-01-02T07:43:24.278Z,6.52
2023-01-02T07:45:51.215Z,6.53
2023-01-02T07:48:18.661Z,6.53
2023-01-02T07:50:46.032Z,6.54
2023-01-02T07:53:14.871Z,6.57
2023-01-02T07:55:41.435Z,6.59
2023-01-02T07:58:08.119Z,6.60
2023-01-02T08:00:34.648Z,6.62
2023-01-02T08:03:01.411Z,6.64
2023-01-02T08:05:27.941Z,6.67
2023-01-02T08:07:54.687Z,6.70
2023-01-02T08:10:21.267Z,6.73
2023-01-02T08:12:47.749Z,6.77
2023-01-02T08:15:14.391Z,6.80
2023-01-02T08:17:40.873Z,6.86
2023-01-02T08:20:08.580Z,6.91
2023-01-02T08:22:35.458Z,6.95
2023-01-02T08:25:02.149Z,6.99
2023-01-02T08:27:28.629Z,7.04
2023-01-02T08:29:55.212Z,7.09
2023-01-02T08:32:21.738Z,7.15
2023-01-02T08:34:48.280Z,7.20
2023-01-02T08:37:15.171Z,7.28
2023-01-02T08:39:41.766Z,7.34
2023-01-02T08:42:08.646Z,7.39
2023-01-02T08:44:36.614Z,7.44
2023-01-02T08:47:04.441Z,7.51
2023-01-02T08:49:31.044Z,7.57
2023-01-02T08:51:57.619Z,7.65
2023-01-02T08:54:24.110Z,7.72
2023-01-02T08:56:53.060Z,7.80
2023-01-02T08:59:19.690Z,7.89
2023-01-02T09:01:46.363Z,7.98
2023-01-02T09:04:13.595Z,8.07
2023-01-02T09:06:41.541Z,8.15
2023-01-02T09:09:12.151Z,8.23
2023-01-02T09:11:43.995Z,8.31
2023-01-02T09:14:10.668Z,8.42
2023-01-02T09:16:37.440Z,8.50
2023-01-02T09:19:04.327Z,8.59
2023-01-02T09:21:30.963Z,8.69
2023-01-02T09:23:57.807Z,8.78
2023-01-02T09:26:24.477Z,8.89
2023-01-02T09:28:51.085Z,8.99
2023-01-02T09:31:18.597Z,9.08
2023-01-02T09:33:48.148Z,9.19
2023-01-02T09:36:18.194Z,9.28
2023-01-02T09:38:49.936Z,9.38
2023-01-02T09:41:22.020Z,9.48
2023-01-02T09:43:55.196Z,9.58
2023-01-02T09:46:35.488Z,9.69
2023-01-02T09:49:03.004Z,9.79
2023-01-02T09:51:31.124Z,9.88
2023-01-02T09:53:57.796Z,9.89
2023-01-02T09:56:33.748Z,10.04
2023-01-02T09:59:12.694Z,10.17
2023-01-02T10:02:07.227Z,10.27
2023-01-02T10:04:47.234Z,10.39
2023-01-02T10:07:24.375Z,10.51
2023-01-02T10:10:08.016Z,10.63
2023-01-02T10:12:47.812Z,10.76
2023-01-02T10:15:20.601Z,10.88
2023-01-02T10:17:51.950Z,11.00
2023-01-02T10:20:24.767Z,11.13
2023-01-02T10:22:57.810Z,11.23
2023-01-02T10:25:33.431Z,11.39
2023-01-02T10:28:14.846Z,11.53
2023-01-02T10:30:48.340Z,11.69
2023-01-02T10:33:22.176Z,11.83
2023-01-02T10:35:55.345Z,11.96
2023-01-02T10:38:21.975Z,12.10
2023-01-02T10:40:50.886Z,12.22
2023-01-02T10:43:18.428Z,12.40
2023-01-02T10:45:45.100Z,12.50
2023-01-02T10:48:11.755Z,12.66
2023-01-02T10:50:52.971Z,12.82
2023-01-02T10:53:22.948Z,12.92
2023-01-02T10:55:49.488Z,13.03
2023-01-02T10:58:23.604Z,13.13
2023-01-02T11:01:17.669Z,13.22
2023-01-02T11:03:46.095Z,13.37
2023-01-02T11:06:30.044Z,13.50
2023-01-02T11:09:22.691Z,13.61
2023-01-02T11:12:08.661Z,13.73
2023-01-02T11:14:37.005Z,13.85
2023-01-02T11:17:19.213Z,13.98
2023-01-02T11:19:54.675Z,14.08
2023-01-02T11:22:23.573Z,14.17
2023-01-02T11:25:00.630Z,14.26
2023-01-02T11:27:36.822Z,14.34
2023-01-02T11:30:07.562Z,14.43
2023-01-02T11:32:39.935Z,14.50
2023-01-02T11:35:36.490Z,14.57
2023-01-02T11:38:03.192Z,14.64
2023-01-02T11:40:31.954Z,14.72
2023-01-02T11:43:05.916Z,14.76
2023-01-02T11:45:33.977Z,14.81
2023-01-02T11:48:02.765Z,14.76
2023-01-02T11:50:31.738Z,14.87
2023-01-02T11:53:09.900Z,14.93
2023-01-02T11:55:55.043Z,14.95
2023-01-02T11:58:42.760Z,14.97
2023-01-02T12:01:21.539Z,14.99
2023-01-02T12:03:48.424Z,15.02
2023-01-02T12:06:21.387Z,15.05
2023-01-02T12:09:11.510Z,15.05
2023-01-02T12:11:58.038Z,15.08
2023-01-02T12:15:01.775Z,15.07
2023-01-02T12:18:01.389Z,15.07
2023-01-02T12:20:38.987Z,15.08
2023-01-02T12:23:30.508Z,15.11
2023-01-02T12:26:11.943Z,15.11
2023-01-02T12:28:47.518Z,15.11
2023-01-02T12:31:45.998Z,15.09
2023-01-02T12:34:21.284Z,15.10
2023-01-02T12:37:18.305Z,15.07
2023-01-02T12:40:22.082Z,15.05
2023-01-02T12:43:24.387Z,15.06
2023-01-02T12:46:07.956Z,15.05
2023-01-02T12:49:18.571Z,15.04
2023-01-02T12:52:19.444Z,15.06
2023-01-02T12:55:17.052Z,15.09
2023-01-02T12:58:02.308Z,15.11
2023-01-02T13:00:41.565Z,15.15
2023-01-02T13:03:39.771Z,15.19
2023-01-02T13:06:44.447Z,15.23
2023-01-02T13:09:10.451Z,15.26
2023-01-02T13:11:48.358Z,15.28
2023-01-02T13:14:18.044Z,15.20
2023-01-02T13:16:53.324Z,15.28
2023-01-02T13:19:48.791Z,15.28
2023-01-02T13:22:27.840Z,15.26
2023-01-02T13:24:57.206Z,15.25
2023-01-02T13:27:24.973Z,15.22
2023-01-02T13:29:53.424Z,15.19
2023-01-02T13:32:30.524Z,15.17
2023-01-02T13:35:01.980Z,15.14
2023-01-02T13:37:29.662Z,15.12
2023-01-02T13:40:02.001Z,15.09
2023-01-02T13:42:33.326Z,15.08
2023-01-02T13:45:00.393Z,15.05
2023-01-02T13:47:35.014Z,15.04
2023-01-02T13:50:01.752Z,15.00
2023-01-02T13:52:28.322Z,14.97
2023-01-02T13:55:16.664Z,14.92
2023-01-02T13:57:43.467Z,14.91
2023-01-02T14:00:34.027Z,14.86
2023-01-02T14:03:22.328Z,14.83
2023-01-02T14:06:29.573Z,14.78
2023-01-02T14:09:04.799Z,14.77
2023-01-02T14:11:56.627Z,14.76
2023-01-02T14:14:41.829Z,14.75
2023-01-02T14:17:42.044Z,14.72
2023-01-02T14:20:36.403Z,14.68
2023-01-02T14:23:06.618Z,14.69
2023-01-02T14:25:43.843Z,14.66
2023-01-02T14:28:23.547Z,14.61
2023-01-02T14:30:51.022Z,14.60
2023-01-02T14:33:30.849Z,14.54
2023-01-02T14:36:07.823Z,14.49
2023-01-02T14:38:53.932Z,14.44
2023-01-02T14:41:48.044Z,14.38
2023-01-02T14:44:15.642Z,14.34
2023-01-02T14:46:43.230Z,14.29
2023-01-02T14:49:25.560Z,14.21
2023-01-02T14:52:02.222Z,14.14
2023-01-02T14:54:49.887Z,14.09
2023-01-02T14:57:24.797Z,14.00
2023-01-02T14:59:53.297Z,13.96
2023-01-02T15:02:29.514Z,13.89
2023-01-02T15:05:03.683Z,13.82
2023-01-02T15:07:36.276Z,13.75
2023-01-02T15:10:10.320Z,13.69
2023-01-02T15:12:53.798Z,13.61
2023-01-02T15:15:25.257Z,13.53
2023-01-02T15:17:53.756Z,13.47
2023-01-02T15:20:23.655Z,13.38
2023-01-02T15:22:55.449Z,13.30
2023-01-02T15:25:40.947Z,13.20
2023-01-02T15:28:23.466Z,13.12
2023-01-02T15:30:59.165Z,13.05
2023-01-02T15:33:31.143Z,12.99
2023-01-02T15:36:06.195Z,12.91
2023-01-02T15:38:32.765Z,12.85
2023-01-02T15:40:59.472Z,12.79
2023-01-02T15:43:29.256Z,12.73
2023-01-02T15:45:56.211Z,12.67
2023-01-02T15:48:27.171Z,12.61
2023-01-02T15:50:58.871Z,12.56
2023-01-02T15:53:30.510Z,12.50
2023-01-02T15:55:58.212Z,12.45
2023-01-02T15:58:49.405Z,12.38
2023-01-02T16:01:22.922Z,12.33
2023-01-02T16:04:00.673Z,12.29
2023-01-02T16:06:35.334Z,12.23
2023-01-02T16:09:08.215Z,12.17
2023-01-02T16:11:48.353Z,12.12
2023-01-02T16:14:19.289Z,12.07
2023-01-02T16:16:51.229Z,12.02
2023-01-02T16:19:23.478Z,11.96
2023-01-02T16:21:52.140Z,11.90
2023-01-02T16:24:24.201Z,11.85
2023-01-02T16:26:51.159Z,11.80
2023-01-02T16:29:20.099Z,11.75
2023-01-02T16:32:00.391Z,11.70
2023-01-02T16:34:45.186Z,11.62
2023-01-02T16:37:17.114Z,11.56
2023-01-02T16:39:48.853Z,11.50
2023-01-02T16:42:15.376Z,11.44
2023-01-02T16:44:41.991Z,11.41
2023-01-02T16:47:10.416Z,11.34
2023-01-02T16:49:37.591Z,11.31
2023-01-02T16:52:04.172Z,11.26
2023-01-02T16:54:30.743Z,11.23
2023-01-02T16:56:57.229Z,11.19
2023-01-02T16:59:23.763Z,11.17
2023-01-02T17:01:50.426Z,11.15
2023-01-02T17:04:17.045Z,11.12
2023-01-02T17:06:43.549Z,11.10
2023-01-02T17:09:10.048Z,11.09
2023-01-02T17:11:37.494Z,11.05
2023-01-02T17:14:03.978Z,11.03
2023-01-02T17:16:30.510Z,11.00
2023-01-02T17:18:57.270Z,10.97
2023-01-02T17:21:27.735Z,10.94
2023-01-02T17:23:57.388Z,10.91
2023-01-02T17:26:24.891Z,10.87
2023-01-02T17:28:51.405Z,10.85
2023-01-02T17:31:22.571Z,10.82
2023-01-02T17:33:51.951Z,10.80
2023-01-02T17:36:18.469Z,10.78
2023-01-02T17:38:45.007Z,10.77
2023-01-02T17:41:11.517Z,10.75
2023-01-02T17:43:38.089Z,10.73
2023-01-02T17:46:38.760Z,10.72
2023-01-02T17:48:55.456Z,10.70
2023-01-02T17:51:21.959Z,10.70
2023-01-02T17:53:51.566Z,10.69
2023-01-02T17:56:20.411Z,10.69
2023-01-02T17:58:48.418Z,10.69
2023-01-02T18:01:20.412Z,10.70
2023-01-02T18:03:47.226Z,10.68
2023-01-02T18:06:14.341Z,10.69
2023-01-02T18:08:41.117Z,10.68
2023-01-02T18:11:13.643Z,10.70
2023-01-02T18:13:45.396Z,10.67
2023-01-02T18:16:18.558Z,10.68
2023-01-02T18:18:46.044Z,10.68
2023-01-02T18:21:15.498Z,10.67
2023-01-02T18:23:42.515Z,10.68
2023-01-02T18:26:13.879Z,10.67
2023-01-02T18:28:45.137Z,10.68
2023-01-02T18:31:16.662Z,10.67
2023-01-02T18:33:43.540Z,10.67
2023-01-02T18:36:21.603Z,10.66
2023-01-02T18:38:49.219Z,10.59
2023-01-02T18:41:25.597Z,10.64
2023-01-02T18:44:02.904Z,10.67
2023-01-02T18:47:03.299Z,10.67
2023-01-02T18:49:27.505Z,10.66
2023-01-02T18:52:33.099Z,10.65
2023-01-02T18:55:28.992Z,10.63
2023-01-02T18:58:05.830Z,10.63
2023-01-02T19:00:34.225Z,10.63
2023-01-02T19:03:09.883Z,10.62
2023-01-02T19:05:39.623Z,10.63
2023-01-02T19:08:08.830Z,10.62
2023-01-02T19:10:42.480Z,10.63
2023-01-02T19:13:31.793Z,10.63
2023-01-02T19:16:03.518Z,10.63
2023-01-02T19:18:36.746Z,10.65
2023-01-02T19:21:32.764Z,10.65
2023-01-02T19:24:05.659Z,10.65
2023-01-02T19:26:33.632Z,10.67
2023-01-02T19:29:09.095Z,10.66
2023-01-02T19:31:43.083Z,10.69
2023-01-02T19:34:38.788Z,10.68
2023-01-02T19:37:10.815Z,10.74
2023-01-02T19:39:44.362Z,10.76
2023-01-02T19:42:11.820Z,10.79
2023-01-02T19:44:38.364Z,10.81
2023-01-02T19:47:05.321Z,10.84
2023-01-02T19:49:31.884Z,10.86
2023-01-02T19:51:58.387Z,10.88
2023-01-02T19:54:24.866Z,10.92
2023-01-02T19:56:51.499Z,10.94
2023-01-02T19:59:18.035Z,10.95
2023-01-02T20:01:45.020Z,10.98
2023-01-02T20:04:11.568Z,10.98
2023-01-02T20:06:39.075Z,11.00
2023-01-02T20:09:05.587Z,11.01
2023-01-02T20:11:32.223Z,11.02
2023-01-02T20:13:58.943Z,11.02
2023-01-02T20:16:25.613Z,11.02
2023-01-02T20:18:52.197Z,11.03
2023-01-02T20:21:18.756Z,11.03
2023-01-02T20:23:45.308Z,11.04
2023-01-02T20:26:12.136Z,11.05
2023-01-02T20:28:38.667Z,11.04
2023-01-02T20:31:05.331Z,11.05
2023-01-02T20:33:31.817Z,11.07
2023-01-02T20:35:58.321Z,11.08
2023-01-02T20:38:24.815Z,11.10
2023-01-02T20:40:51.288Z,11.10
2023-01-02T20:43:17.937Z,11.10
2023-01-02T20:45:44.451Z,11.11
2023-01-02T20:48:10.916Z,11.10
2023-01-02T20:50:37.436Z,11.11
2023-01-02T20:53:04.003Z,11.08
2023-01-02T20:55:30.623Z,11.07
2023-01-02T20:57:57.360Z,11.04
2023-01-02T21:00:24.028Z,11.02
2023-01-02T21:02:51.069Z,10.99
2023-01-02T21:05:17.735Z,10.95
2023-01-02T21:07:44.323Z,10.92
2023-01-02T21:10:10.896Z,10.88
2023-01-02T21:12:37.390Z,10.84
2023-01-02T21:15:03.973Z,10.82
2023-01-02T21:17:30.438Z,10.80
2023-01-02T21:19:56.908Z,10.78
2023-01-02T21:22:23.465Z,10.76
2023-01-02T21:24:50.054Z,10.76
2023-01-02T21:27:19.178Z,10.75
2023-01-02T21:29:45.708Z,10.77
2023-01-02T21:32:12.199Z,10.80
2023-01-02T21:34:38.862Z,10.81
2023-01-02T21:37:05.386Z,10.86
2023-01-02T21:39:31.934Z,10.92
2023-01-02T21:41:58.443Z,11.01
2023-01-02T21:44:24.885Z,11.08
2023-01-02T21:46:51.496Z,11.16
2023-01-02T21:49:17.953Z,11.23
2023-01-02T21:51:44.442Z,11.33
2023-01-02T21:54:11.155Z,11.40
2023-01-02T21:56:37.648Z,11.48
2023-01-02T21:59:04.132Z,11.55
2023-01-02T22:01:31.017Z,11.61
2023-01-02T22:03:57.683Z,11.67
2023-01-02T22:06:24.471Z,11.72
2023-01-02T22:08:51.092Z,11.74
2023-01-02T22:11:17.706Z,11.76
2023-01-02T22:13:44.246Z,11.77
2023-01-02T22:16:10.826Z,11.77
2023-01-02T22:18:38.581Z,11.79
2023-01-02T22:21:05.391Z,11.80
2023-01-02T22:23:32.012Z,11.80
2023-01-02T22:25:58.634Z,11.81
2023-01-02T22:28:25.366Z,11.82
2023-01-02T22:30:52.657Z,11.83
2023-01-02T22:33:19.367Z,11.84
2023-01-02T22:35:45.899Z,11.86
2023-01-02T22:38:12.456Z,11.88
2023-01-02T22:40:39.139Z,11.89
2023-01-02T22:43:06.565Z,11.91
2023-01-02T22:45:47.525Z,11.90
2023-01-02T22:48:30.357Z,11.91
2023-01-02T22:50:59.685Z,11.93
2023-01-02T22:53:32.259Z,11.94
2023-01-02T22:56:00.908Z,11.95
2023-01-02T22:58:27.570Z,11.95
2023-01-02T23:01:02.583Z,11.95
2023-01-02T23:03:32.173Z,11.97
2023-01-02T23:05:58.779Z,11.98
2023-01-02T23:08:25.374Z,11.98
2023-01-02T23:10:52.471Z,11.99
2023-01-02T23:13:18.955Z,11.95
2023-01-02T23:15:45.427Z,11.96
2023-01-02T23:18:12.007Z,11.95
2023-01-02T23:20:38.509Z,11.96
2023-01-02T23:23:04.995Z,11.95
2023-01-02T23:25:31.575Z,11.95
2023-01-02T23:27:58.043Z,11.96
2023-01-02T23:30:24.509Z,11.96
2023-01-02T23:32:51.042Z,11.96
2023-01-02T23:35:17.630Z,11.95
2023-01-02T23:37:44.103Z,11.95
2023-01-02T23:40:11.357Z,11.97
2023-01-02T23:42:37.893Z,11.97
2023-01-02T23:45:04.798Z,11.97
2023-01-02T23:47:31.262Z,11.98
2023-01-02T23:49:57.731Z,11.98
2023-01-02T23:52:24.380Z,12.00
2023-01-02T23:54:50.870Z,12.01
2023-01-02T23:57:17.411Z,12.02
2023-01-02T23:59:44.049Z,12.02
